Melissa Lynn — WDI5512 — position and weather

sailwx.info

Track history (hours):
 
Tides and Currents Weather Stations Pressure Air Temp Water Temp Dewpoint Dewpoint Depression Visibility Wind Speed Wind Dir Waves Ship Positions

Melissa Lynn

Owner: Titan Marine Towing LLC, Corpus Christi, TX. More information available from US FCC via Universal Licensing System and Coast Guard Vessel Documentation Center.

Last reported at 2018-Feb-22 20:10 UTC. Time now 2018-Feb-23 08:45 UTC.
Position N 29°32' W 094°54'.

Type: Tow > 200 m length. MMSI: 367709340.

Date/timePositionNaut miles runAvg speedWind from/ knotsBaromVisibWave heightAir tempDewpointWater temp
2018-Feb-22 20:10N 29°32' W 094°54'1 8.8
2018-Feb-22 20:00N 29°33' W 094°55'4 9.0
2018-Feb-22 19:30N 29°37' W 094°58'4 9.0
2018-Feb-22 19:00N 29°41' W 094°59'4 0.1
2018-Feb-20 23:00N 29°44' W 095°03'3 4.7
2018-Feb-20 22:26N 29°42' W 095°01'2 5.6
2018-Feb-20 22:00N 29°41' W 094°59'3 5.9
2018-Feb-20 21:30N 29°38' W 094°58'3 5.5
2018-Feb-20 21:00N 29°36' W 094°56'3 5.6
2018-Feb-20 20:30N 29°33' W 094°55'12 1.8
2018-Feb-20 13:38N 29°24' W 094°45'0 0.0
2018-Feb-20 13:29N 29°24' W 094°45'0 0.0
2018-Feb-20 12:57N 29°24' W 094°45'0 0.0
2018-Feb-20 11:34N 29°24' W 094°45'0 0.0
2018-Feb-20 10:38N 29°24' W 094°45'0 0.0
2018-Feb-20 09:35N 29°24' W 094°45'0 0.0
2018-Feb-20 09:25N 29°24' W 094°45'0 0.0
2018-Feb-20 07:27N 29°24' W 094°45'0 0.0
2018-Feb-20 07:00N 29°24' W 094°45'3 0.3
2018-Feb-19 21:38N 29°26' W 094°43'2 1.1
2018-Feb-19 19:50N 29°27' W 094°41'2 4.4
2018-Feb-19 19:28N 29°26' W 094°43'5 3.5
2018-Feb-19 17:59N 29°22' W 094°47'2 3.9
2018-Feb-19 17:29N 29°23' W 094°49'3 6.7
2018-Feb-19 16:58N 29°27' W 094°50'3 6.5
2018-Feb-19 16:26N 29°30' W 094°52'3 6.3
2018-Feb-19 15:58N 29°32' W 094°54'3 6.4
2018-Feb-19 15:30N 29°35' W 094°56'3 5.6
2018-Feb-19 15:00N 29°37' W 094°57'3 6.3
2018-Feb-19 14:30N 29°40' W 094°59'3 5.7
2018-Feb-19 14:00N 29°42' W 095°01'2 4.5
2018-Feb-19 13:30N 29°44' W 095°03'3 5.5
2018-Feb-19 12:59N 29°46' W 095°05'0 0.1
2018-Feb-19 09:25N 29°46' W 095°05'0 0.0
2018-Feb-19 08:46N 29°46' W 095°05'0 0.0
2018-Feb-19 08:29N 29°46' W 095°05'0 0.0
2018-Feb-19 08:00N 29°46' W 095°05'0 0.0
2018-Feb-19 07:30N 29°46' W 095°05'0 0.0
2018-Feb-19 06:58N 29°46' W 095°05'0 0.0
2018-Feb-19 06:25N 29°46' W 095°05'0 0.0
2018-Feb-19 05:58N 29°46' W 095°05'0 0.0
2018-Feb-19 05:30N 29°46' W 095°05'0 0.0
2018-Feb-19 02:06N 29°46' W 095°05'0 0.0
2018-Feb-19 01:55N 29°46' W 095°05'0 0.0
2018-Feb-19 01:29N 29°46' W 095°05'0 0.0
2018-Feb-19 01:00N 29°46' W 095°05'0 0.0
2018-Feb-19 00:29N 29°46' W 095°05'0 0.0
2018-Feb-19 00:00N 29°46' W 095°05'0 0.0
2018-Feb-17 23:47N 29°46' W 095°05'0 0.9
2018-Feb-17 23:30N 29°46' W 095°05'3 6.2
2018-Feb-17 22:58N 29°44' W 095°02'3 5.8
2018-Feb-17 22:30N 29°42' W 094°60'3 6.7
2018-Feb-17 22:00N 29°39' W 094°58'4 7.1
2018-Feb-17 21:30N 29°36' W 094°57'4 7.3
2018-Feb-17 21:00N 29°33' W 094°54'34 1.8
2018-Feb-17 02:08N 29°03' W 095°13'0 0.0
2018-Feb-17 01:57N 29°03' W 095°13'0 0.0
2018-Feb-17 01:28N 29°03' W 095°13'0 0.0
2018-Feb-17 00:55N 29°03' W 095°13'50 2.3
2018-Feb-16 02:41N 28°39' W 096°03'0 0.1
2018-Feb-16 02:23N 28°39' W 096°03'8 2.6
2018-Feb-15 23:29N 28°36' W 096°11'  
Track history (hours):
 
Tides and Currents Weather Stations Pressure Air Temp Water Temp Dewpoint Dewpoint Depression Visibility Wind Speed Wind Dir Waves Ship Positions

Melissa Lynn

Owner: Titan Marine Towing LLC, Corpus Christi, TX. More information available from US FCC via Universal Licensing System and Coast Guard Vessel Documentation Center.

Last reported at 2018-Feb-22 20:10 UTC. Time now 2018-Feb-23 08:45 UTC.
Position N 29°32' W 094°54'.

Type: Tow > 200 m length. MMSI: 367709340.

Date/timePositionNaut miles runAvg speedWind from/ knotsBaromVisibWave heightAir tempDewpointWater temp
2018-Feb-22 20:10N 29°32' W 094°54'1 8.8
2018-Feb-22 20:00N 29°33' W 094°55'4 9.0
2018-Feb-22 19:30N 29°37' W 094°58'4 9.0
2018-Feb-22 19:00N 29°41' W 094°59'4 0.1
2018-Feb-20 23:00N 29°44' W 095°03'3 4.7
2018-Feb-20 22:26N 29°42' W 095°01'2 5.6
2018-Feb-20 22:00N 29°41' W 094°59'3 5.9
2018-Feb-20 21:30N 29°38' W 094°58'3 5.5
2018-Feb-20 21:00N 29°36' W 094°56'3 5.6
2018-Feb-20 20:30N 29°33' W 094°55'12 1.8
2018-Feb-20 13:38N 29°24' W 094°45'0 0.0
2018-Feb-20 13:29N 29°24' W 094°45'0 0.0
2018-Feb-20 12:57N 29°24' W 094°45'0 0.0
2018-Feb-20 11:34N 29°24' W 094°45'0 0.0
2018-Feb-20 10:38N 29°24' W 094°45'0 0.0
2018-Feb-20 09:35N 29°24' W 094°45'0 0.0
2018-Feb-20 09:25N 29°24' W 094°45'0 0.0
2018-Feb-20 07:27N 29°24' W 094°45'0 0.0
2018-Feb-20 07:00N 29°24' W 094°45'3 0.3
2018-Feb-19 21:38N 29°26' W 094°43'2 1.1
2018-Feb-19 19:50N 29°27' W 094°41'2 4.4
2018-Feb-19 19:28N 29°26' W 094°43'5 3.5
2018-Feb-19 17:59N 29°22' W 094°47'2 3.9
2018-Feb-19 17:29N 29°23' W 094°49'3 6.7
2018-Feb-19 16:58N 29°27' W 094°50'3 6.5
2018-Feb-19 16:26N 29°30' W 094°52'3 6.3
2018-Feb-19 15:58N 29°32' W 094°54'3 6.4
2018-Feb-19 15:30N 29°35' W 094°56'3 5.6
2018-Feb-19 15:00N 29°37' W 094°57'3 6.3
2018-Feb-19 14:30N 29°40' W 094°59'3 5.7
2018-Feb-19 14:00N 29°42' W 095°01'2 4.5
2018-Feb-19 13:30N 29°44' W 095°03'3 5.5
2018-Feb-19 12:59N 29°46' W 095°05'0 0.1
2018-Feb-19 09:25N 29°46' W 095°05'0 0.0
2018-Feb-19 08:46N 29°46' W 095°05'0 0.0
2018-Feb-19 08:29N 29°46' W 095°05'0 0.0
2018-Feb-19 08:00N 29°46' W 095°05'0 0.0
2018-Feb-19 07:30N 29°46' W 095°05'0 0.0
2018-Feb-19 06:58N 29°46' W 095°05'0 0.0
2018-Feb-19 06:25N 29°46' W 095°05'0 0.0
2018-Feb-19 05:58N 29°46' W 095°05'0 0.0
2018-Feb-19 05:30N 29°46' W 095°05'0 0.0
2018-Feb-19 02:06N 29°46' W 095°05'0 0.0
2018-Feb-19 01:55N 29°46' W 095°05'0 0.0
2018-Feb-19 01:29N 29°46' W 095°05'0 0.0
2018-Feb-19 01:00N 29°46' W 095°05'0 0.0
2018-Feb-19 00:29N 29°46' W 095°05'0 0.0
2018-Feb-19 00:00N 29°46' W 095°05'0 0.0
2018-Feb-17 23:47N 29°46' W 095°05'0 0.9
2018-Feb-17 23:30N 29°46' W 095°05'3 6.2
2018-Feb-17 22:58N 29°44' W 095°02'3 5.8
2018-Feb-17 22:30N 29°42' W 094°60'3 6.7
2018-Feb-17 22:00N 29°39' W 094°58'4 7.1
2018-Feb-17 21:30N 29°36' W 094°57'4 7.3
2018-Feb-17 21:00N 29°33' W 094°54'34 1.8
2018-Feb-17 02:08N 29°03' W 095°13'0 0.0
2018-Feb-17 01:57N 29°03' W 095°13'0 0.0
2018-Feb-17 01:28N 29°03' W 095°13'0 0.0
2018-Feb-17 00:55N 29°03' W 095°13'50 2.3
2018-Feb-16 02:41N 28°39' W 096°03'0 0.1
2018-Feb-16 02:23N 28°39' W 096°03'8 2.6
2018-Feb-15 23:29N 28°36' W 096°11'  

Dump ship's entire track history